Time;durP1;ratioP1;P1;durP2;ratioP2;P2;SDS_P1;SDS_P2;PMS_P1;PMS_P2;Temp;Humidity;BMP_temperature;BMP_pressure;BME280_temperature;BME280_humidity;BME280_pressure;Samples;Min_cycle;Max_cycle;Signal;HPM_P1;HPM_P2
2022/04/21 00:02:12;;;;;;;15.00;6.83;;;;;;;6.64;70.03;100155.79;124596;1099;104182;-77
2022/04/21 00:04:44;;;;;;;14.23;7.33;;;;;;;6.64;70.15;100150.58;124264;1099;104175;-78
2022/04/21 00:07:18;;;;;;;14.77;7.07;;;;;;;6.64;70.42;100156.67;124163;1102;104485;-78
2022/04/21 00:09:50;;;;;;;13.73;7.30;;;;;;;6.65;70.09;100154.95;124286;1100;102803;-77
2022/04/21 00:12:21;;;;;;;13.57;6.90;;;;;;;6.65;70.18;100153.25;124797;1099;104054;-77
2022/04/21 00:14:52;;;;;;;14.50;7.03;;;;;;;6.65;70.37;100154.95;124317;1099;104156;-77
2022/04/21 00:17:24;;;;;;;13.03;6.60;;;;;;;6.63;70.37;100152.27;124853;1099;104163;-77
2022/04/21 00:19:56;;;;;;;11.33;6.53;;;;;;;6.63;70.51;100153.99;124725;1099;104340;-78
2022/04/21 00:25:17;;;;;;;12.60;6.90;;;;;;;6.67;70.39;100158.54;124770;1099;104281;-77
2022/04/21 00:27:48;;;;;;;11.63;6.53;;;;;;;6.68;70.52;100152.48;124759;1099;102800;-78
2022/04/21 00:30:20;;;;;;;14.00;6.83;;;;;;;6.72;70.39;100161.36;124744;1099;101818;-78
2022/04/21 00:32:52;;;;;;;13.67;7.00;;;;;;;6.72;70.22;100166.57;124796;1099;104262;-78
2022/04/21 00:35:24;;;;;;;10.63;6.17;;;;;;;6.73;70.39;100160.52;124787;1099;102516;-77
2022/04/21 00:37:58;;;;;;;14.10;6.70;;;;;;;6.69;70.23;100159.49;124845;1099;102449;-77
2022/04/21 00:40:32;;;;;;;12.20;6.67;;;;;;;6.67;70.27;100166.36;124741;1099;104180;-77
2022/04/21 00:43:04;;;;;;;13.60;7.57;;;;;;;6.66;70.50;100162.84;124814;1099;104217;-77
2022/04/21 00:45:39;;;;;;;11.33;6.73;;;;;;;6.69;70.49;100164.70;124250;1102;104313;-78
2022/04/21 00:48:13;;;;;;;15.30;7.50;;;;;;;6.73;70.50;100164.03;124197;1099;104156;-77
2022/04/21 00:50:46;;;;;;;13.40;7.23;;;;;;;6.73;70.37;100161.42;124253;1102;104360;-77
2022/04/21 00:53:19;;;;;;;12.63;6.77;;;;;;;6.75;70.48;100169.32;124236;1099;104163;-78
2022/04/21 00:55:51;;;;;;;15.37;7.33;;;;;;;6.75;70.52;100164.98;124241;1099;102329;-77
2022/04/21 00:58:23;;;;;;;13.20;7.40;;;;;;;6.76;70.42;100160.66;124236;1099;104207;-77
2022/04/21 01:00:55;;;;;;;16.47;7.63;;;;;;;6.76;70.50;100164.17;124253;1099;104325;-77
2022/04/21 01:03:27;;;;;;;14.37;7.53;;;;;;;6.78;70.65;100165.13;124201;1102;104211;-77
2022/04/21 01:05:59;;;;;;;14.27;7.40;;;;;;;6.77;70.75;100160.72;124185;1098;102977;-78
2022/04/21 01:08:31;;;;;;;15.13;7.47;;;;;;;6.79;70.86;100168.61;124255;1099;102331;-77
2022/04/21 01:11:02;;;;;;;14.70;7.83;;;;;;;6.78;70.74;100159.91;124265;1100;102945;-78
2022/04/21 01:13:35;;;;;;;14.20;7.17;;;;;;;6.79;70.64;100156.49;124165;1102;104095;-78
2022/04/21 01:16:08;;;;;;;13.80;7.00;;;;;;;6.82;70.72;100158.32;124287;1099;104293;-75
2022/04/21 01:18:40;;;;;;;14.87;7.40;;;;;;;6.80;70.57;100153.03;124274;1099;104176;-75
2022/04/21 01:21:12;;;;;;;14.47;7.67;;;;;;;6.81;70.91;100152.23;124788;1099;104191;-75
2022/04/21 01:23:44;;;;;;;14.93;7.27;;;;;;;6.81;70.80;100149.62;124841;1098;101912;-76
2022/04/21 01:26:18;;;;;;;13.07;6.80;;;;;;;6.84;70.87;100154.09;124754;1099;102922;-75
2022/04/21 01:28:52;;;;;;;13.50;6.47;;;;;;;6.82;70.53;100156.63;124722;1099;105088;-75
2022/04/21 01:31:27;;;;;;;13.10;6.85;;;;;;;6.82;70.61;100153.11;124800;1099;104188;-75
2022/04/21 01:34:01;;;;;;;12.43;6.40;;;;;;;6.81;70.77;100148.73;124846;1099;104275;-75
2022/04/21 01:36:33;;;;;;;12.63;6.75;;;;;;;6.81;70.67;100152.23;124777;1099;104309;-75
2022/04/21 01:41:54;;;;;;;13.37;6.50;;;;;;;6.81;70.80;100148.73;124722;1099;102848;-75
2022/04/21 01:44:26;;;;;;;11.87;6.10;;;;;;;6.81;70.48;100148.73;124792;1099;102845;-75
2022/04/21 01:46:57;;;;;;;12.30;6.23;;;;;;;6.79;70.41;100152.97;124727;1099;104230;-76
2022/04/21 01:49:28;;;;;;;11.23;6.33;;;;;;;6.80;70.68;100159.98;124768;1099;104409;-75
2022/04/21 01:51:59;;;;;;;11.27;6.23;;;;;;;6.80;70.91;100155.64;124837;1099;104063;-76
2022/04/21 01:54:30;;;;;;;13.77;6.80;;;;;;;6.81;70.80;100152.23;124713;1099;104147;-76
2022/04/21 01:57:02;;;;;;;14.50;7.03;;;;;;;6.83;70.89;100154.91;124757;1099;104166;-76
2022/04/21 01:59:33;;;;;;;11.90;6.70;;;;;;;6.84;71.01;100148.87;124772;1098;104159;-76
2022/04/21 02:02:05;;;;;;;14.57;6.90;;;;;;;6.86;70.76;100148.91;124755;1099;104248;-75
2022/04/21 02:04:37;;;;;;;12.70;7.00;;;;;;;6.86;70.76;100152.44;124624;1099;104189;-75
2022/04/21 02:07:09;;;;;;;13.03;7.00;;;;;;;6.87;70.86;100153.31;124778;1099;104166;-76
2022/04/21 02:09:42;;;;;;;13.10;6.97;;;;;;;6.88;71.12;100147.29;124298;1099;102823;-76
2022/04/21 02:12:14;;;;;;;12.53;6.27;;;;;;;6.87;70.93;100150.70;124837;1099;102819;-75
2022/04/21 02:14:46;;;;;;;12.67;6.43;;;;;;;6.89;70.80;100154.27;124741;1099;104376;-76
2022/04/21 02:17:19;;;;;;;13.80;7.20;;;;;;;6.87;70.97;100141.16;124733;1099;102720;-75
2022/04/21 02:19:50;;;;;;;12.40;6.97;;;;;;;6.88;71.08;100139.46;124837;1099;104232;-75
2022/04/21 02:22:23;;;;;;;12.90;6.77;;;;;;;6.87;70.83;100137.66;124707;1099;104303;-75
2022/04/21 02:24:56;;;;;;;16.33;7.47;;;;;;;6.87;70.78;100135.06;124705;1099;104265;-75
2022/04/21 02:27:27;;;;;;;15.27;7.37;;;;;;;6.88;71.17;100134.25;124746;1099;104227;-76
2022/04/21 02:29:59;;;;;;;13.37;6.93;;;;;;;6.89;70.87;100141.22;124208;1099;104326;-75
2022/04/21 02:32:31;;;;;;;13.60;7.10;;;;;;;6.88;71.47;100132.52;124326;1099;102257;-76
2022/04/21 02:35:03;;;;;;;13.87;7.40;;;;;;;6.89;71.03;100129.09;124386;1099;102165;-75
2022/04/21 02:37:40;;;;;;;14.20;7.10;;;;;;;6.89;70.92;100120.36;124798;1099;104313;-76
2022/04/21 02:40:13;;;;;;;15.37;7.50;;;;;;;6.88;70.99;100124.70;124755;1099;104304;-75
2022/04/21 02:42:46;;;;;;;17.57;7.58;;;;;;;6.88;71.26;100123.81;124758;1099;104262;-75
2022/04/21 02:45:17;;;;;;;14.40;7.30;;;;;;;6.84;70.95;100114.97;124336;1099;105804;-75
2022/04/21 02:47:49;;;;;;;16.00;7.87;;;;;;;6.83;71.80;100116.66;124773;1099;102218;-76
2022/04/21 02:50:23;;;;;;;13.50;7.60;;;;;;;6.82;71.29;100120.12;124766;1099;104198;-75
2022/04/21 02:52:54;;;;;;;15.20;7.80;;;;;;;6.80;71.23;100115.64;124293;1100;102897;-75
2022/04/21 02:58:17;;;;;;;13.83;7.60;;;;;;;6.76;71.57;100121.53;124773;1099;104223;-75
2022/04/21 03:00:49;;;;;;;15.67;8.07;;;;;;;6.75;71.68;100114.56;124860;1099;102789;-76
2022/04/21 03:03:21;;;;;;;16.00;8.33;;;;;;;6.75;71.54;100114.56;124771;1099;102857;-76
2022/04/21 03:05:52;;;;;;;15.80;8.20;;;;;;;6.73;71.52;100119.70;124619;1099;103625;-75
2022/04/21 03:08:25;;;;;;;16.77;7.80;;;;;;;6.72;71.34;100120.52;124190;1099;104251;-76
2022/04/21 03:10:58;;;;;;;16.27;8.47;;;;;;;6.71;71.38;100126.55;124276;1099;104201;-76
2022/04/21 03:13:29;;;;;;;14.07;7.70;;;;;;;6.71;71.31;100125.66;124232;1099;102778;-75
2022/04/21 03:16:01;;;;;;;15.93;8.03;;;;;;;6.71;71.24;100126.55;124468;1099;104336;-75
2022/04/21 03:18:32;;;;;;;15.67;7.70;;;;;;;6.68;71.38;100136.83;124760;1099;102642;-76
2022/04/21 03:26:49;;;;;;;15.60;8.30;;;;;;;6.69;71.53;100133.41;124663;1099;104345;-76
2022/04/21 03:29:20;;;;;;;15.93;8.30;;;;;;;6.73;71.52;100135.35;124798;1099;102236;-75
2022/04/21 03:31:53;;;;;;;16.10;7.93;;;;;;;6.76;71.74;100132.88;124786;1099;103005;-75
2022/04/21 03:34:25;;;;;;;17.33;9.20;;;;;;;6.77;71.91;100137.25;124739;1099;104249;-75
2022/04/21 03:36:56;;;;;;;16.63;8.87;;;;;;;6.78;71.53;100133.83;124725;1098;104239;-76
2022/04/21 03:39:28;;;;;;;17.40;8.63;;;;;;;6.80;71.79;100137.39;124766;1099;104220;-75
2022/04/21 03:42:01;;;;;;;16.47;8.13;;;;;;;6.82;71.88;100132.24;124798;1098;101883;-75
2022/04/21 03:44:35;;;;;;;17.67;8.93;;;;;;;6.84;71.91;100126.28;124800;1099;104405;-76
2022/04/21 03:47:07;;;;;;;19.97;9.03;;;;;;;6.87;72.09;100125.50;124689;1099;104188;-75
2022/04/21 03:49:39;;;;;;;19.07;8.97;;;;;;;6.91;72.02;100126.56;124807;1099;104236;-75
2022/04/21 03:52:11;;;;;;;16.07;8.37;;;;;;;6.94;71.99;100111.05;124770;1099;104395;-76
2022/04/21 03:54:43;;;;;;;17.13;8.67;;;;;;;6.99;71.94;100112.13;124761;1099;102947;-75
2022/04/21 03:57:14;;;;;;;16.00;8.10;;;;;;;7.04;72.24;100105.38;124652;1099;104376;-75
2022/04/21 03:59:45;;;;;;;16.07;8.03;;;;;;;7.09;72.33;100095.15;124730;1099;104089;-76
2022/04/21 04:02:17;;;;;;;16.27;8.17;;;;;;;7.12;72.14;100072.71;124779;1099;102791;-75
2022/04/21 04:04:49;;;;;;;18.03;8.60;;;;;;;7.15;72.67;100070.23;126074;1097;102075;-76
2022/04/21 04:12:58;;;;;;;16.67;7.67;;;;;;;7.28;72.12;100042.92;124815;1099;104284;-76
2022/04/21 04:15:31;;;;;;;15.67;7.97;;;;;;;7.31;72.16;100053.49;124942;1098;104066;-78
2022/04/21 04:18:02;;;;;;;14.03;7.10;;;;;;;7.34;71.94;100078.84;124994;1099;102250;-76
2022/04/21 04:20:33;;;;;;;16.73;8.03;;;;;;;7.38;71.67;100086.83;124808;1099;104616;-78
2022/04/21 04:23:05;;;;;;;15.17;7.83;;;;;;;7.42;71.87;100081.73;124420;1099;102697;-77
2022/04/21 04:25:38;;;;;;;15.23;7.67;;;;;;;7.49;71.68;100084.67;124756;1099;104334;-78
2022/04/21 04:28:10;;;;;;;13.93;7.40;;;;;;;7.55;71.74;100097.09;124630;1099;104321;-77
2022/04/21 04:30:42;;;;;;;14.20;7.47;;;;;;;7.61;71.45;100104.30;124359;1099;104361;-77
2022/04/21 04:33:14;;;;;;;15.27;7.60;;;;;;;7.67;71.80;100099.34;124925;1099;104667;-77
2022/04/21 04:35:47;;;;;;;15.00;7.80;;;;;;;7.73;71.41;100110.91;124818;1099;104323;-77
2022/04/21 04:38:19;;;;;;;15.50;7.53;;;;;;;7.80;71.82;100105.94;124634;1099;101914;-79
2022/04/21 04:40:51;;;;;;;16.07;7.77;;;;;;;7.85;71.85;100102.70;124347;1099;104188;-77
2022/04/21 04:43:27;;;;;;;16.13;7.20;;;;;;;7.89;71.52;100101.97;124829;1099;104172;-78
2022/04/21 04:48:49;;;;;;;16.87;8.10;;;;;;;7.94;71.29;100106.50;124906;1099;104173;-78
2022/04/21 04:51:21;;;;;;;16.97;7.60;;;;;;;7.96;71.05;100112.66;124939;1099;104172;-78
2022/04/21 04:53:53;;;;;;;15.07;7.57;;;;;;;7.97;71.57;100117.07;124459;1099;104182;-76
2022/04/21 04:56:27;;;;;;;22.30;11.00;;;;;;;7.98;71.52;100113.61;124745;1099;104249;-78
2022/04/21 04:58:59;;;;;;;14.57;7.40;;;;;;;8.00;71.48;100109.36;124980;1099;104267;-79
2022/04/21 05:01:35;;;;;;;16.53;8.40;;;;;;;8.01;71.50;100106.80;124837;1099;102679;-78
2022/04/21 05:04:09;;;;;;;14.30;7.47;;;;;;;8.04;71.66;100108.63;124874;1098;101946;-78
2022/04/21 05:06:42;;;;;;;15.90;7.75;;;;;;;8.09;71.37;100109.72;124374;1099;104285;-77
2022/04/21 05:09:18;;;;;;;16.07;7.30;;;;;;;8.11;70.93;100105.44;124798;1099;104233;-78
2022/04/21 05:11:52;;;;;;;15.47;7.43;;;;;;;8.16;71.12;100114.33;124891;1099;102899;-77
2022/04/21 05:14:24;;;;;;;14.07;7.43;;;;;;;8.22;71.48;100114.58;124818;1099;104236;-78
2022/04/21 05:16:55;;;;;;;13.60;6.77;;;;;;;8.28;71.36;100120.05;124844;1099;104211;-78
2022/04/21 05:19:28;;;;;;;16.00;6.97;;;;;;;8.36;71.06;100116.84;124774;1099;104242;-78
2022/04/21 05:22:13;;;;;;;15.83;7.80;;;;;;;8.43;71.15;100118.84;124492;1099;102543;-77
2022/04/21 05:24:53;;;;;;;16.13;8.00;;;;;;;8.50;71.40;100118.29;125133;1099;102788;-78
2022/04/21 05:27:28;;;;;;;14.87;7.67;;;;;;;8.57;71.00;100122.02;124828;1099;102858;-78
2022/04/21 05:32:53;;;;;;;15.37;7.90;;;;;;;8.70;71.18;100120.77;124992;1099;104172;-78
2022/04/21 05:35:27;;;;;;;14.40;7.20;;;;;;;8.75;71.35;100122.70;124937;1099;104118;-79
2022/04/21 05:38:03;;;;;;;14.40;7.10;;;;;;;8.79;70.92;100121.11;124957;1099;104268;-80
2022/04/21 05:40:37;;;;;;;15.77;6.97;;;;;;;8.83;70.80;100122.11;124911;1099;117809;-79
2022/04/21 05:43:12;;;;;;;15.55;7.05;;;;;;;8.85;71.07;100126.58;124936;1099;102842;-79
2022/04/21 05:45:48;;;;;;;21.63;7.10;;;;;;;8.88;70.68;100131.00;124556;1099;104214;-80
2022/04/21 05:48:24;;;;;;;14.67;6.60;;;;;;;8.91;71.04;100137.27;125000;1099;104256;-81
2022/04/21 05:50:58;;;;;;;12.57;6.80;;;;;;;8.96;71.01;100134.78;125008;1098;104191;-79
2022/04/21 05:53:33;;;;;;;14.53;7.45;;;;;;;8.99;70.46;100133.19;124661;1099;104297;-79
2022/04/21 05:56:07;;;;;;;17.23;7.37;;;;;;;9.05;70.96;100135.12;124973;1099;104051;-77
2022/04/21 05:58:41;;;;;;;14.50;7.55;;;;;;;9.12;70.25;100137.12;125083;1099;104163;-79
2022/04/21 06:01:14;;;;;;;13.47;7.03;;;;;;;9.16;70.49;100139.03;125166;1099;110479;-81
2022/04/21 06:03:52;;;;;;;15.75;7.35;;;;;;;9.21;70.38;100133.96;124965;1098;104185;-78
2022/04/21 06:06:33;;;;;;;14.70;7.20;;;;;;;9.27;70.17;100134.17;125303;1099;101891;-80
2022/04/21 06:09:15;;;;;;;13.00;6.77;;;;;;;9.33;70.74;100139.63;125418;1099;102251;-79
2022/04/21 06:12:01;;;;;;;13.55;6.85;;;;;;;9.36;70.25;100138.83;124892;1099;103097;-80
2022/04/21 06:14:46;;;;;;;16.30;7.50;;;;;;;9.38;70.35;100134.55;125062;1099;104261;-79
2022/04/21 06:17:27;;;;;;;13.17;7.30;;;;;;;9.43;70.06;100137.33;124621;1099;104274;-79
2022/04/21 06:20:19;;;;;;;11.45;6.97;;;;;;;9.46;70.02;100130.46;125263;1099;104290;-78
2022/04/21 06:23:06;;;;;;;14.57;7.40;;;;;;;9.52;69.77;100121.90;125174;1099;104051;-79
2022/04/21 06:25:46;;;;;;;14.37;7.27;;;;;;;9.61;69.99;100124.83;124591;1099;104128;-80
2022/04/21 06:28:20;;;;;;;12.70;7.00;;;;;;;9.65;69.84;100116.25;125200;1099;104334;-82
2022/04/21 06:30:54;;;;;;;13.93;7.20;;;;;;;9.73;70.42;100119.13;125318;1099;104220;-81
2022/04/21 06:33:45;;;;;;;15.93;7.33;;;;;;;9.78;70.19;100119.27;125361;1099;104211;-81
2022/04/21 06:36:49;;;;;;;16.47;7.47;;;;;;;9.84;69.65;100122.97;126560;1099;102509;-81
2022/04/21 06:39:24;;;;;;;20.17;7.20;;;;;;;9.92;69.62;100117.10;125877;1099;102685;-82
2022/04/21 06:41:57;;;;;;;16.10;7.37;;;;;;;9.98;70.07;100123.42;125890;1099;109952;-80
2022/04/21 06:48:05;;;;;;;21.00;7.20;;;;;;;10.12;68.89;100118.62;125830;1099;102455;-81
2022/04/21 06:50:42;;;;;;;19.63;7.53;;;;;;;10.23;69.39;100111.97;124637;1099;102911;-81
2022/04/21 06:53:16;;;;;;;18.77;7.93;;;;;;;10.35;69.34;100114.13;125844;1099;104233;-80
2022/04/21 06:55:52;;;;;;;16.53;7.77;;;;;;;10.46;69.58;100126.69;125877;1099;104204;-80
2022/04/21 06:58:25;;;;;;;20.10;8.40;;;;;;;10.55;69.03;100119.05;125074;1099;104179;-80
2022/04/21 07:00:57;;;;;;;17.43;7.57;;;;;;;10.66;69.31;100124.63;125024;1099;104857;-79
2022/04/21 07:03:29;;;;;;;19.60;8.10;;;;;;;10.77;68.99;100126.73;124531;1099;104172;-78
2022/04/21 07:06:10;;;;;;;17.87;7.93;;;;;;;10.87;68.62;100129.62;125012;1099;104188;-79
2022/04/21 07:09:01;;;;;;;17.10;7.97;;;;;;;10.90;68.64;100125.33;125234;1098;103128;-80
2022/04/21 07:11:38;;;;;;;17.60;7.87;;;;;;;11.01;68.67;100130.01;124991;1099;102110;-79
2022/04/21 07:14:17;;;;;;;21.70;8.03;;;;;;;11.06;68.20;100125.77;124615;1099;104287;-79
2022/04/21 07:17:12;;;;;;;14.50;7.57;;;;;;;11.10;67.86;100128.52;125024;1099;105178;-79
2022/04/21 07:19:52;;;;;;;14.53;7.47;;;;;;;11.15;67.85;100124.27;125097;1099;102216;-80
2022/04/21 07:22:28;;;;;;;16.27;8.27;;;;;;;11.19;67.53;100125.27;125814;1099;102191;-80
2022/04/21 07:25:04;;;;;;;19.60;8.50;;;;;;;11.27;67.41;100121.09;125325;1099;102326;-80
2022/04/21 07:27:43;;;;;;;18.57;8.87;;;;;;;11.35;67.05;100117.80;125956;1099;102232;-79
2022/04/21 07:30:18;;;;;;;15.67;7.97;;;;;;;11.43;66.45;100114.50;125766;1099;104271;-80
2022/04/21 07:35:55;;;;;;;19.53;8.40;;;;;;;11.62;66.42;100110.60;125140;1099;102387;-78
2022/04/21 07:38:42;;;;;;;18.97;8.13;;;;;;;11.71;65.76;100104.70;125113;1099;104268;-78
2022/04/21 07:41:26;;;;;;;19.53;7.53;;;;;;;11.85;65.69;100105.91;124509;1099;104150;-77
2022/04/21 07:43:57;;;;;;;17.50;8.40;;;;;;;11.99;66.16;100106.28;125619;1099;102058;-78
2022/04/21 07:46:33;;;;;;;16.27;8.23;;;;;;;12.14;65.96;100099.59;125012;1099;101933;-78
2022/04/21 07:53:13;;;;;;;17.47;8.50;;;;;;;12.38;65.42;100100.15;124439;1099;104070;-80
2022/04/21 07:54:58;;;;;;;17.40;8.30;;;;;;;12.44;64.75;100094.14;124507;1099;103056;-79
2022/04/21 07:57:32;;;;;;;17.70;8.50;;;;;;;12.54;64.61;100095.22;125130;1099;104335;-80
2022/04/21 08:00:05;;;;;;;17.90;8.33;;;;;;;12.66;63.35;100094.59;125174;1102;104337;-79
2022/04/21 08:02:47;;;;;;;17.80;8.00;;;;;;;12.79;64.46;100090.47;124961;1099;104111;-77
2022/04/21 08:05:24;;;;;;;17.37;8.10;;;;;;;12.88;63.95;100085.38;125559;1102;103448;-78
2022/04/21 08:07:57;;;;;;;14.67;7.90;;;;;;;12.93;62.84;100081.08;124730;1102;104154;-77
2022/04/21 08:10:29;;;;;;;14.20;7.13;;;;;;;12.99;62.56;100075.94;124986;1099;102273;-77
2022/04/21 08:13:05;;;;;;;17.73;8.93;;;;;;;13.12;62.31;100077.08;125262;1102;104666;-79
2022/04/21 08:15:40;;;;;;;19.33;8.43;;;;;;;13.22;62.37;100072.85;125068;1099;104239;-78
2022/04/21 08:18:16;;;;;;;18.23;8.23;;;;;;;13.28;61.03;100072.97;125075;1102;104191;-80
2022/04/21 08:20:58;;;;;;;14.43;7.77;;;;;;;13.35;60.92;100071.34;125222;1099;103209;-79
2022/04/21 08:23:38;;;;;;;17.30;8.60;;;;;;;13.45;60.74;100065.39;124863;1099;102503;-79
2022/04/21 08:35:13;;;;;;;13.73;7.33;;;;;;;14.03;59.71;100047.83;124885;1099;102998;-79
2022/04/21 08:37:50;;;;;;;16.63;8.13;;;;;;;14.17;59.67;100042.75;124625;1099;104307;-78
2022/04/21 08:40:35;;;;;;;16.00;7.70;;;;;;;14.30;59.61;100034.99;125030;1099;104184;-79
2022/04/21 08:43:16;;;;;;;13.60;7.40;;;;;;;14.45;59.59;100040.47;125726;1099;104176;-79
2022/04/21 08:45:49;;;;;;;16.97;7.53;;;;;;;14.51;59.23;100044.95;125917;1098;104278;-79
2022/04/21 08:48:25;;;;;;;;;;;;;;;14.50;52.58;100037.89;125092;1099;102385;-79
2022/04/21 08:51:25;;;;;;;15.60;7.57;;;;;;;14.66;57.93;100036.34;125796;1099;104377;-77
2022/04/21 08:54:06;;;;;;;15.63;7.20;;;;;;;14.74;56.44;100043.50;125215;1099;104190;-79
2022/04/21 08:56:41;;;;;;;16.90;7.27;;;;;;;14.93;56.25;100035.78;125792;1099;104184;-80
2022/04/21 08:59:15;;;;;;;14.23;7.27;;;;;;;15.09;56.45;100040.33;125288;1099;102255;-79
2022/04/21 09:01:48;;;;;;;13.70;6.95;;;;;;;15.23;55.72;100040.47;125971;1098;104169;-77
2022/04/21 09:04:21;;;;;;;16.25;7.30;;;;;;;15.39;55.02;100037.97;125711;1099;103247;-78
2022/04/21 09:07:20;;;;;;;15.93;6.73;;;;;;;15.51;54.86;100031.91;125153;1099;104250;-77
2022/04/21 09:10:15;;;;;;;13.87;6.77;;;;;;;15.58;54.50;100039.00;125346;1099;104252;-78
2022/04/21 09:12:56;;;;;;;11.90;6.30;;;;;;;15.81;52.99;100045.38;125699;1099;104226;-77
2022/04/21 09:15:36;;;;;;;12.90;6.43;;;;;;;15.90;52.99;100027.81;125772;1099;104281;-77
2022/04/21 09:18:14;;;;;;;10.37;6.03;;;;;;;15.97;50.80;100033.16;124999;1099;102274;-79
2022/04/21 09:20:54;;;;;;;14.47;6.73;;;;;;;16.15;51.59;100035.00;125079;1099;102804;-76
2022/04/21 09:23:35;;;;;;;11.23;6.17;;;;;;;16.30;51.90;100033.34;124985;1099;103155;-77
2022/04/21 09:26:12;;;;;;;12.70;6.60;;;;;;;16.52;52.19;100018.42;124951;1099;104166;-77
2022/04/21 09:28:53;;;;;;;13.93;7.20;;;;;;;16.69;51.71;100029.08;124505;1099;103672;-77
2022/04/21 09:31:29;;;;;;;14.57;6.87;;;;;;;16.79;51.39;100025.55;125766;1099;104339;-77
2022/04/21 09:34:03;;;;;;;12.37;6.13;;;;;;;16.79;50.56;100017.61;125691;1099;104149;-77
2022/04/21 09:36:41;;;;;;;11.37;6.00;;;;;;;16.74;50.25;100023.80;125811;1099;102596;-79
2022/04/21 09:39:19;;;;;;;13.70;6.47;;;;;;;16.68;49.98;100025.52;125135;1099;102187;-80
2022/04/21 09:41:56;;;;;;;11.93;6.57;;;;;;;16.65;49.82;100035.23;124972;1099;102442;-77
2022/04/21 09:47:44;;;;;;;13.70;6.30;;;;;;;16.48;49.21;100035.17;124938;1099;104226;-77
2022/04/21 09:50:17;;;;;;;16.80;7.00;;;;;;;16.50;48.09;100033.40;124519;1099;104338;-78
2022/04/21 09:52:53;;;;;;;12.97;7.00;;;;;;;16.51;48.60;100036.05;125147;1099;104159;-81
2022/04/21 09:55:34;;;;;;;13.47;6.57;;;;;;;16.56;48.05;100040.49;125075;1099;104300;-80
2022/04/21 09:58:24;;;;;;;13.93;6.77;;;;;;;16.61;47.55;100044.03;125147;1099;102601;-80
2022/04/21 10:01:15;;;;;;;13.65;7.03;;;;;;;16.61;47.24;100038.73;126008;1098;102257;-80
2022/04/21 10:03:48;;;;;;;14.60;7.87;;;;;;;16.58;45.56;100036.08;125098;1099;104236;-78
2022/04/21 10:06:21;;;;;;;15.13;7.40;;;;;;;16.62;44.08;100040.52;125158;1099;102924;-78
2022/04/21 10:08:54;;;;;;;13.15;7.28;;;;;;;16.70;46.49;100044.06;125205;1099;102225;-79
2022/04/21 10:11:31;;;;;;;13.70;7.10;;;;;;;16.76;46.08;100033.49;125012;1099;104669;-79
2022/04/21 10:14:06;;;;;;;16.50;7.40;;;;;;;16.83;46.59;100037.94;125135;1099;102508;-78
2022/04/21 10:16:42;;;;;;;13.57;7.00;;;;;;;16.85;44.72;100030.87;125177;1098;104156;-79
2022/04/21 10:19:19;;;;;;;12.27;6.90;;;;;;;16.84;44.36;100045.02;125359;1098;102796;-79
2022/04/21 10:22:05;;;;;;;12.33;6.87;;;;;;;16.85;43.46;100045.89;124757;1099;103345;-80
2022/04/21 10:24:48;;;;;;;11.87;6.90;;;;;;;16.86;44.32;100045.94;125234;1099;102467;-79
2022/04/21 10:27:44;;;;;;;12.30;6.73;;;;;;;16.82;45.08;100053.84;125050;1099;104162;-79
2022/04/21 10:30:21;;;;;;;12.30;6.30;;;;;;;16.81;44.48;100036.16;125143;1099;102771;-79
2022/04/21 10:32:55;;;;;;;11.57;6.30;;;;;;;16.79;43.94;100037.93;125073;1099;102692;-78
2022/04/21 10:35:57;;;;;;;13.43;6.83;;;;;;;16.75;42.74;100044.09;124482;1099;102597;-77
2022/04/21 10:38:28;;;;;;;14.97;7.37;;;;;;;16.84;43.35;100042.38;124677;1102;104048;-78
2022/04/21 10:41:18;;;;;;;11.53;6.50;;;;;;;16.92;43.31;100038.88;124491;1099;102280;-76
2022/04/21 10:47:36;;;;;;;13.43;6.87;;;;;;;17.05;42.55;100043.33;124723;1099;104319;-76
2022/04/21 10:59:21;;;;;;;15.30;7.60;;;;;;;17.11;41.39;100040.69;124355;1103;104232;-78
2022/04/21 11:02:10;;;;;;;13.17;7.00;;;;;;;17.19;41.83;100038.05;124514;1102;104256;-79
2022/04/21 11:04:46;;;;;;;13.10;6.80;;;;;;;17.25;40.89;100033.63;124405;1102;108771;-78
2022/04/21 11:07:50;;;;;;;15.70;7.60;;;;;;;17.47;41.43;100032.73;124385;1102;102256;-78
2022/04/21 11:10:41;;;;;;;14.00;7.07;;;;;;;17.40;39.78;100030.09;124500;1102;104238;-78
2022/04/21 11:13:18;;;;;;;;;;;;;;;17.41;39.33;100029.21;124499;1101;104313;-78
2022/04/21 11:15:57;;;;;;;10.70;6.40;;;;;;;17.52;39.97;100033.64;124450;1102;104162;-78
2022/04/21 11:18:35;;;;;;;12.40;6.40;;;;;;;17.59;39.11;100038.05;124436;1102;102801;-77
2022/04/21 11:21:51;;;;;;;10.20;5.80;;;;;;;17.59;37.60;100044.26;124879;1102;104194;-78
2022/04/21 11:24:27;;;;;;;12.60;6.47;;;;;;;17.76;38.53;100040.69;124931;1102;102809;-78
2022/04/21 11:27:03;;;;;;;11.67;6.40;;;;;;;17.80;37.88;100031.85;124499;1102;104130;-77
2022/04/21 11:29:38;;;;;;;12.00;6.30;;;;;;;17.87;38.32;100024.75;124432;1102;102842;-76
2022/04/21 11:32:36;;;;;;;17.40;7.13;;;;;;;17.88;38.16;100029.19;124638;1102;102784;-77
2022/04/21 11:35:16;;;;;;;13.10;6.20;;;;;;;17.94;37.75;100040.70;124661;1102;104217;-76
2022/04/21 11:38:05;;;;;;;11.53;6.30;;;;;;;17.92;37.15;100033.62;124627;1102;104270;-78
2022/04/21 11:40:41;;;;;;;14.07;6.20;;;;;;;17.76;37.07;100038.03;124486;1102;104246;-78
2022/04/21 11:43:18;;;;;;;12.80;6.47;;;;;;;17.70;37.30;100030.98;124337;1102;104223;-77
2022/04/21 11:46:01;;;;;;;10.47;6.20;;;;;;;17.59;36.81;100025.69;124293;1102;104399;-78
2022/04/21 11:48:36;;;;;;;10.67;6.00;;;;;;;17.57;37.88;100038.05;124415;1102;102021;-78
2022/04/21 11:54:21;;;;;;;12.57;7.00;;;;;;;17.26;37.64;100023.90;124363;1102;103064;-79
2022/04/21 11:57:00;;;;;;;14.90;6.80;;;;;;;17.13;38.11;100030.97;124382;1102;104323;-78
2022/04/21 11:59:38;;;;;;;16.50;7.27;;;;;;;17.07;38.28;100041.55;124454;1102;102790;-78
2022/04/21 12:08:02;;;;;;;17.20;7.17;;;;;;;16.81;37.84;100037.06;124550;1102;102221;-79
2022/04/21 12:10:42;;;;;;;11.87;6.20;;;;;;;16.92;37.59;100039.74;124362;1102;104338;-79
2022/04/21 12:13:23;;;;;;;11.93;6.40;;;;;;;17.03;37.69;100034.47;124133;1103;104261;-78
2022/04/21 12:15:54;;;;;;;;;;;;;;;17.04;35.91;100036.25;124365;1102;104204;-78
2022/04/21 12:18:45;;;;;;;10.87;5.77;;;;;;;17.07;36.58;100034.48;124517;1102;104258;-78
2022/04/21 12:21:56;;;;;;;12.57;6.57;;;;;;;17.05;36.66;100043.33;124624;1102;102480;-77
2022/04/21 12:27:34;;;;;;;12.43;6.70;;;;;;;16.79;36.68;100038.80;124252;1102;104307;-78
2022/04/21 12:30:07;;;;;;;15.70;6.37;;;;;;;16.74;37.32;100047.64;124406;1102;104213;-79
2022/04/21 12:32:51;;;;;;;14.85;6.78;;;;;;;16.79;37.36;100041.45;124549;1101;104346;-78
2022/04/21 12:35:45;;;;;;;10.57;6.30;;;;;;;16.93;37.21;100051.25;124379;1102;102436;-77
2022/04/21 12:41:11;;;;;;;13.40;6.50;;;;;;;17.13;36.55;100046.87;124362;1102;104160;-77
2022/04/21 12:43:43;;;;;;;14.73;6.87;;;;;;;17.25;36.32;100035.41;124307;1102;104267;-78
2022/04/21 12:46:17;;;;;;;12.63;6.10;;;;;;;17.40;36.94;100043.34;124321;1102;104229;-77
2022/04/21 12:48:52;;;;;;;12.77;6.30;;;;;;;17.50;36.55;100038.95;124426;1102;104264;-78
2022/04/21 12:51:27;;;;;;;11.93;6.10;;;;;;;17.58;36.49;100041.61;124424;1102;102976;-78
2022/04/21 12:54:02;;;;;;;9.70;5.50;;;;;;;17.54;35.92;100040.70;124563;1102;102210;-78
2022/04/21 12:56:41;;;;;;;10.80;5.73;;;;;;;17.43;35.47;100043.34;124533;1102;102799;-77
2022/04/21 12:59:17;;;;;;;11.87;5.80;;;;;;;17.30;35.72;100046.02;124455;1102;104205;-79
2022/04/21 13:01:59;;;;;;;13.53;6.60;;;;;;;17.16;35.32;100060.13;124534;1102;104162;-78
2022/04/21 13:04:32;;;;;;;11.50;6.00;;;;;;;17.05;35.32;100048.63;124406;1102;102883;-77